KMGJ/MGJ METAR and TAF weather

Enter ICAO airport designator
Station Type Date Time Source
KMGJ METAR 2022/01/23 10:54 UTC NOAA

KMGJ 231054Z AUTO 00000KT 10SM CLR M14/M16 A2994 RMK AO2 SLP145 T11391161


Station Type Date Time Source
KMGJ Decoded METAR 2022/01/23 10:54 UTC NOAA

MONTGOMERY ORANGE CO AIRPORT, NY, United States (KMGJ) 41-31N 074-16W 108M
Jan 23, 2022 - 05:54 AM EST / 2022.01.23 1054 UTC
Wind: Calm:0
Visibility: 10 mile(s):0
Sky conditions: clear
Temperature: 7.0 F (-13.9 C)
Dew Point: 3.0 F (-16.1 C)
Relative Humidity: 83%
Pressure (altimeter): 29.94 in. Hg (1013 hPa)
ob: KMGJ 231054Z AUTO 00000KT 10SM CLR M14/M16 A2994 RMK AO2 SLP145 T11391161
cycle: 11

Station Type Date Time Source
KMGJ TAF UTC NOAA

Error!

Example: see airport list